Meteo Giornale » Osservazioni meteo Stati Uniti (USA) » Chester

ore: 21:55 - Osservazioni Meteo Chester
Lat. 41° 23' N Lon. 72° 30' W Alt. 127 metri s.l.m.

poco_nuvoloso America/New_York

16 °C

Poco Nuvoloso

Temp. 24 Ore

0 °C

23 °C

Nord-Ovest

13 Km/h

Dew point 14 °C

Umidità 87 %

Visibilità  10 Km

Il sole sorge alle ore 06:42

Il sole tramonta alle ore 18:38

Data e Ora Cielo e Fenomeni T °C DP °C Um. % Pres. hPa Vis. km Vento km/h
Oggi h: 21:55 poco_nuvoloso Poco Nuvoloso 16 14 87 1010 10 NO 13
Oggi h: 21:35 poco_nuvoloso Poco Nuvoloso 16 14 87 1010 10 N/NO 11.1
Oggi h: 21:15 nuvoloso Nuvoloso 17 15 88 1010 10 N/NO 16.7
Oggi h: 20:55 coperto Coperto 17 16 93 1010 10 NO 16.7
Oggi h: 20:35 coperto Coperto 17 17 100 1010 10 NO 9.3
Oggi h: 19:55 coperto Coperto 18 18 100 1010 10 NO 9.3
Oggi h: 19:35 molto_nuvoloso Molto Nuvoloso 18 18 100 1010 10 O/NO 7.4
Oggi h: 19:15 coperto Coperto 18 18 100 1009 10 N 0
Oggi h: 18:55 coperto Coperto 18 18 100 1009 14 N 0
Oggi h: 18:35 coperto Coperto 18 18 100 1009 10 N 0
Oggi h: 18:15 coperto Coperto 18 18 100 1009 14 N 0
Oggi h: 17:55 molto_nuvoloso Molto Nuvoloso 18 18 100 1009 10 N 0
Oggi h: 17:35 molto_nuvoloso Molto Nuvoloso 18 18 100 1009 14 N 0
Oggi h: 17:15 coperto_pioggia Pioviggine Leggera 18 18 100 1009 11 N 0
Oggi h: 16:55 coperto_pioggia Pioggia Debole 18 18 100 1009 2 N 5.5
Oggi h: 16:35 coperto_pioggia Pioggia Debole 18 18 100 1009 2 N 0
Oggi h: 15:35 coperto Coperto 19 18 93 1009 10 N 9.3
Oggi h: 15:15 coperto Coperto 19 18 93 1008 10 N 11.1
Oggi h: 14:55 molto_nuvoloso Molto Nuvoloso 19 18 93 1009 10 N 9.3
Oggi h: 14:35 nuvoloso Nuvoloso 19 18 93 1008 10 N 0
Oggi h: 14:15 nuvoloso Nuvoloso 18 18 100 1008 10 N 7.4
Oggi h: 13:55 coperto_pioggia Pioggia Debole 18 18 100 1008 11 N 9.3
Oggi h: 13:35 coperto_pioggia Pioggia Debole 18 18 100 1010 10 N 0
Oggi h: 12:55 coperto_pioggia Pioggia Debole 19 17 88 1010 10 N 11.1
Oggi h: 12:35 coperto_pioggia Pioggia Debole 20 17 82 1010 10 NO 7.4
Oggi h: 12:15 poco_nuvoloso Poco Nuvoloso 21 16 73 1010 10 N 9.3
Oggi h: 11:55 nuvoloso Nuvoloso 21 16 73 1010 10 NO 11.1
Oggi h: 11:35 nuvoloso Nuvoloso 22 17 73 1010 10 NO 7.4
Oggi h: 11:15 nuvoloso Nuvoloso 22 17 73 1010 10 N 0
Oggi h: 10:55 molto_nuvoloso Molto Nuvoloso 23 16 64 1009 10 N 0
Oggi h: 09:55 molto_nuvoloso Molto Nuvoloso 21 18 82 1010 10 N 9.3
Oggi h: 09:35 molto_nuvoloso Molto Nuvoloso 21 17 77 1009 10 SO 13
Oggi h: 09:15 nuvoloso Nuvoloso 21 18 82 1009 10 N 14.8
Oggi h: 08:55 poco_nuvoloso Poco Nuvoloso 20 17 82 1009 10 N 9.3
Oggi h: 08:35 sereno Sereno 21 17 77 1009 10 N 9.3
Oggi h: 08:15 sereno Sereno 20 17 82 1009 10 N 11.1
Oggi h: 07:55 sereno Sereno 19 17 88 1009 10 N 0
Oggi h: 07:35 sereno Sereno 18 17 93 1009 10 N 0
Oggi h: 07:15 sereno Sereno 18 16 88 1009 10 N 5.5
Oggi h: 06:55 sereno Sereno 18 16 88 1009 10 SO 7.4
Oggi h: 06:35 sereno Sereno 18 16 88 1009 10 SO 11.1
Oggi h: 06:15 sereno Sereno 18 16 88 1009 10 SO 9.3
Oggi h: 05:55 sereno Sereno 18 16 88 1009 10 SO 7.4
Oggi h: 05:35 sereno Sereno 18 16 88 1010 10 SO 9.3
Oggi h: 05:15 sereno Sereno 18 16 88 1010 10 N 9.3
Oggi h: 04:35 sereno Sereno 18 16 88 1010 10 SO 7.4
Oggi h: 04:15 sereno Sereno 18 16 88 1010 10 SO 11.1
Oggi h: 03:55 sereno Sereno 18 16 88 1010 10 S/SO 7.4
Oggi h: 03:35 sereno Sereno 18 15 82 1010 10 SO 9.3
Oggi h: 03:15 sereno Sereno 19 15 77 1010 10 SO 9.3
Oggi h: 02:55 sereno Sereno 0 0 87 1010 10 N 7.4
Oggi h: 02:35 sereno Sereno 19 15 77 1010 10 SO 11.1
Oggi h: 02:15 sereno Sereno 19 15 77 1010 10 SO 9.3
Oggi h: 01:55 sereno Sereno 19 15 77 1011 10 N 9.3
Oggi h: 01:35 sereno Sereno 20 15 72 1011 10 SO 11.1
Oggi h: 00:55 sereno Sereno 20 15 72 1011 10 N 11.1
Oggi h: 00:35 sereno Sereno 20 15 72 1011 10 SO 9.3
Ieri h: 23:55 sereno Sereno 20 15 72 1011 10 SO 13
Ieri h: 23:35 sereno Sereno 20 15 72 1011 10 SO 18.5
Ieri h: 23:15 sereno Sereno 20 16 77 1011 10 SO 16.7
Ieri h: 22:55 poco_nuvoloso Poco Nuvoloso 20 16 77 1011 10 SO 16.7
Ieri h: 22:35 nuvoloso Nuvoloso 20 16 77 1011 10 SO 13